sensor_id;sensor_type;location;lat;lon;timestamp;pressure;altitude;pressure_sealevel;temperature;humidity
71151;BME280;59071;42.138;24.768;2023-04-07T00:00:53;99473.28;;;7.27;42.73
71151;BME280;59071;42.138;24.768;2023-04-07T00:03:19;99471.47;;;7.28;42.83
71151;BME280;59071;42.138;24.768;2023-04-07T00:05:44;99477.94;;;7.03;43.03
71151;BME280;59071;42.138;24.768;2023-04-07T00:08:10;99472.63;;;7.03;42.60
71151;BME280;59071;42.138;24.768;2023-04-07T00:10:35;99473.84;;;7.22;42.41
71151;BME280;59071;42.138;24.768;2023-04-07T00:13:01;99475.50;;;7.23;42.20
71151;BME280;59071;42.138;24.768;2023-04-07T00:15:26;99473.41;;;6.97;42.68
71151;BME280;59071;42.138;24.768;2023-04-07T00:17:51;99476.63;;;6.78;42.93
71151;BME280;59071;42.138;24.768;2023-04-07T00:20:16;99475.59;;;6.94;42.40
71151;BME280;59071;42.138;24.768;2023-04-07T00:22:42;99477.00;;;6.60;43.41
71151;BME280;59071;42.138;24.768;2023-04-07T00:25:07;99463.59;;;6.76;42.41
71151;BME280;59071;42.138;24.768;2023-04-07T00:27:33;99465.53;;;6.89;42.72
71151;BME280;59071;42.138;24.768;2023-04-07T00:29:58;99468.75;;;6.84;42.45
71151;BME280;59071;42.138;24.768;2023-04-07T00:32:23;99478.03;;;6.44;43.49
71151;BME280;59071;42.138;24.768;2023-04-07T00:34:49;99476.91;;;6.68;42.82
71151;BME280;59071;42.138;24.768;2023-04-07T00:37:14;99474.75;;;6.57;42.92
71151;BME280;59071;42.138;24.768;2023-04-07T00:39:40;99480.97;;;6.34;44.18
71151;BME280;59071;42.138;24.768;2023-04-07T00:42:05;99472.34;;;6.47;43.94
71151;BME280;59071;42.138;24.768;2023-04-07T00:44:31;99475.91;;;6.69;43.22
71151;BME280;59071;42.138;24.768;2023-04-07T00:46:56;99477.63;;;6.77;42.91
71151;BME280;59071;42.138;24.768;2023-04-07T00:49:23;99471.41;;;6.84;42.43
71151;BME280;59071;42.138;24.768;2023-04-07T00:51:48;99482.97;;;6.98;42.74
71151;BME280;59071;42.138;24.768;2023-04-07T00:54:13;99480.22;;;6.70;42.61
71151;BME280;59071;42.138;24.768;2023-04-07T00:56:39;99473.44;;;6.68;43.12
71151;BME280;59071;42.138;24.768;2023-04-07T00:59:04;99473.28;;;7.05;42.21
71151;BME280;59071;42.138;24.768;2023-04-07T01:01:31;99470.41;;;7.22;41.96
71151;BME280;59071;42.138;24.768;2023-04-07T01:06:25;99469.63;;;7.28;41.81
71151;BME280;59071;42.138;24.768;2023-04-07T01:09:04;99481.31;;;6.61;42.59
71151;BME280;59071;42.138;24.768;2023-04-07T01:11:31;99479.53;;;6.68;43.46
71151;BME280;59071;42.138;24.768;2023-04-07T01:13:59;99468.28;;;6.30;43.91
71151;BME280;59071;42.138;24.768;2023-04-07T01:16:26;99475.28;;;6.37;43.40
71151;BME280;59071;42.138;24.768;2023-04-07T01:18:56;99470.09;;;6.44;43.89
71151;BME280;59071;42.138;24.768;2023-04-07T01:21:23;99480.56;;;6.37;43.32
71151;BME280;59071;42.138;24.768;2023-04-07T01:23:58;99467.72;;;6.19;43.65
71151;BME280;59071;42.138;24.768;2023-04-07T01:26:27;99480.03;;;6.27;43.79
71151;BME280;59071;42.138;24.768;2023-04-07T01:31:27;99483.84;;;6.54;43.34
71151;BME280;59071;42.138;24.768;2023-04-07T01:33:53;99484.06;;;6.38;43.91
71151;BME280;59071;42.138;24.768;2023-04-07T01:36:19;99483.31;;;6.44;44.21
71151;BME280;59071;42.138;24.768;2023-04-07T01:38:45;99471.31;;;5.88;44.69
71151;BME280;59071;42.138;24.768;2023-04-07T01:41:13;99486.63;;;5.93;44.49
71151;BME280;59071;42.138;24.768;2023-04-07T01:43:38;99480.13;;;5.58;45.61
71151;BME280;59071;42.138;24.768;2023-04-07T01:46:05;99487.59;;;6.15;44.25
71151;BME280;59071;42.138;24.768;2023-04-07T01:48:30;99492.13;;;6.06;44.14
71151;BME280;59071;42.138;24.768;2023-04-07T01:50:55;99490.03;;;6.02;44.67
71151;BME280;59071;42.138;24.768;2023-04-07T01:53:22;99494.16;;;6.19;44.51
71151;BME280;59071;42.138;24.768;2023-04-07T01:55:47;99489.97;;;6.40;43.80
71151;BME280;59071;42.138;24.768;2023-04-07T01:58:13;99491.69;;;6.33;44.01
71151;BME280;59071;42.138;24.768;2023-04-07T02:00:38;99485.16;;;6.29;44.02
71151;BME280;59071;42.138;24.768;2023-04-07T02:03:08;99492.16;;;6.21;44.20
71151;BME280;59071;42.138;24.768;2023-04-07T02:05:35;99481.75;;;6.20;44.22
71151;BME280;59071;42.138;24.768;2023-04-07T02:08:04;99487.75;;;5.99;44.57
71151;BME280;59071;42.138;24.768;2023-04-07T02:10:29;99475.22;;;5.93;44.18
71151;BME280;59071;42.138;24.768;2023-04-07T02:12:57;99481.47;;;6.00;44.28
71151;BME280;59071;42.138;24.768;2023-04-07T02:15:24;99476.47;;;5.82;44.34
71151;BME280;59071;42.138;24.768;2023-04-07T02:17:51;99481.63;;;5.60;45.35
71151;BME280;59071;42.138;24.768;2023-04-07T02:20:17;99478.84;;;6.00;44.07
71151;BME280;59071;42.138;24.768;2023-04-07T02:22:44;99481.00;;;5.96;44.19
71151;BME280;59071;42.138;24.768;2023-04-07T02:25:22;99478.31;;;6.19;44.09
71151;BME280;59071;42.138;24.768;2023-04-07T02:27:47;99485.41;;;6.04;43.63
71151;BME280;59071;42.138;24.768;2023-04-07T02:30:13;99483.22;;;6.22;44.19
71151;BME280;59071;42.138;24.768;2023-04-07T02:32:38;99484.09;;;5.77;44.75
71151;BME280;59071;42.138;24.768;2023-04-07T02:35:03;99482.56;;;5.82;44.60
71151;BME280;59071;42.138;24.768;2023-04-07T02:37:29;99475.53;;;5.75;44.34
71151;BME280;59071;42.138;24.768;2023-04-07T02:39:54;99483.53;;;5.66;44.50
71151;BME280;59071;42.138;24.768;2023-04-07T02:42:20;99481.56;;;5.45;44.81
71151;BME280;59071;42.138;24.768;2023-04-07T02:44:45;99487.28;;;5.72;44.33
71151;BME280;59071;42.138;24.768;2023-04-07T02:47:10;99483.94;;;5.78;44.50
71151;BME280;59071;42.138;24.768;2023-04-07T02:49:36;99487.75;;;5.76;45.22
71151;BME280;59071;42.138;24.768;2023-04-07T02:52:01;99492.88;;;5.77;44.95
71151;BME280;59071;42.138;24.768;2023-04-07T02:54:26;99494.22;;;5.73;44.97
71151;BME280;59071;42.138;24.768;2023-04-07T02:56:51;99489.97;;;5.87;45.13
71151;BME280;59071;42.138;24.768;2023-04-07T02:59:17;99494.69;;;6.00;45.13
71151;BME280;59071;42.138;24.768;2023-04-07T03:01:42;99495.66;;;5.99;45.10
71151;BME280;59071;42.138;24.768;2023-04-07T03:04:07;99493.50;;;6.02;44.27
71151;BME280;59071;42.138;24.768;2023-04-07T03:06:32;99501.69;;;6.22;44.49
71151;BME280;59071;42.138;24.768;2023-04-07T03:08:58;99496.41;;;6.22;44.14
71151;BME280;59071;42.138;24.768;2023-04-07T03:11:23;99495.69;;;6.43;44.20
71151;BME280;59071;42.138;24.768;2023-04-07T03:13:48;99505.91;;;6.32;44.31
71151;BME280;59071;42.138;24.768;2023-04-07T03:16:14;99494.03;;;6.13;44.30
71151;BME280;59071;42.138;24.768;2023-04-07T03:18:39;99502.38;;;6.24;44.59
71151;BME280;59071;42.138;24.768;2023-04-07T03:21:04;99497.75;;;6.03;45.15
71151;BME280;59071;42.138;24.768;2023-04-07T03:23:30;99506.53;;;6.04;44.81
71151;BME280;59071;42.138;24.768;2023-04-07T03:25:55;99504.41;;;5.76;45.26
71151;BME280;59071;42.138;24.768;2023-04-07T03:28:21;99502.31;;;5.72;45.71
71151;BME280;59071;42.138;24.768;2023-04-07T03:30:47;99505.41;;;5.98;45.21
71151;BME280;59071;42.138;24.768;2023-04-07T03:33:12;99502.72;;;5.83;45.56
71151;BME280;59071;42.138;24.768;2023-04-07T03:35:38;99506.47;;;5.89;44.95
71151;BME280;59071;42.138;24.768;2023-04-07T03:38:03;99507.53;;;6.18;44.56
71151;BME280;59071;42.138;24.768;2023-04-07T03:40:28;99517.31;;;6.17;44.64
71151;BME280;59071;42.138;24.768;2023-04-07T03:42:53;99513.63;;;6.18;44.56
71151;BME280;59071;42.138;24.768;2023-04-07T03:45:19;99516.84;;;6.29;44.52
71151;BME280;59071;42.138;24.768;2023-04-07T03:47:44;99518.22;;;6.24;44.59
71151;BME280;59071;42.138;24.768;2023-04-07T03:50:09;99519.97;;;5.71;45.50
71151;BME280;59071;42.138;24.768;2023-04-07T03:52:35;99516.63;;;6.00;44.43
71151;BME280;59071;42.138;24.768;2023-04-07T03:55:00;99516.56;;;5.85;44.95
71151;BME280;59071;42.138;24.768;2023-04-07T03:57:26;99522.38;;;5.81;45.29
71151;BME280;59071;42.138;24.768;2023-04-07T03:59:51;99525.53;;;5.76;45.63
71151;BME280;59071;42.138;24.768;2023-04-07T04:02:17;99525.66;;;5.83;45.54
71151;BME280;59071;42.138;24.768;2023-04-07T04:04:42;99525.63;;;5.68;45.94
71151;BME280;59071;42.138;24.768;2023-04-07T04:07:07;99522.59;;;5.94;45.12
71151;BME280;59071;42.138;24.768;2023-04-07T04:09:32;99530.38;;;6.11;44.30
71151;BME280;59071;42.138;24.768;2023-04-07T04:11:58;99529.66;;;6.02;44.58
71151;BME280;59071;42.138;24.768;2023-04-07T04:14:23;99525.72;;;5.75;45.17
71151;BME280;59071;42.138;24.768;2023-04-07T04:16:48;99530.97;;;6.21;44.43
71151;BME280;59071;42.138;24.768;2023-04-07T04:19:14;99531.16;;;6.19;43.99
71151;BME280;59071;42.138;24.768;2023-04-07T04:21:39;99539.72;;;6.21;44.38
71151;BME280;59071;42.138;24.768;2023-04-07T04:24:04;99540.66;;;6.29;44.86
71151;BME280;59071;42.138;24.768;2023-04-07T04:26:30;99544.81;;;6.23;44.02
71151;BME280;59071;42.138;24.768;2023-04-07T04:28:55;99550.22;;;6.44;44.06
71151;BME280;59071;42.138;24.768;2023-04-07T04:31:21;99556.50;;;6.58;43.93
71151;BME280;59071;42.138;24.768;2023-04-07T04:33:46;99556.34;;;6.75;43.08
71151;BME280;59071;42.138;24.768;2023-04-07T04:36:11;99554.31;;;6.62;43.99
71151;BME280;59071;42.138;24.768;2023-04-07T04:38:37;99544.72;;;6.91;43.20
71151;BME280;59071;42.138;24.768;2023-04-07T04:41:02;99545.97;;;7.10;42.71
71151;BME280;59071;42.138;24.768;2023-04-07T04:43:27;99554.22;;;7.36;42.22
71151;BME280;59071;42.138;24.768;2023-04-07T04:45:53;99556.28;;;7.56;41.61
71151;BME280;59071;42.138;24.768;2023-04-07T04:48:18;99559.00;;;8.12;40.47
71151;BME280;59071;42.138;24.768;2023-04-07T04:50:43;99563.16;;;7.72;41.33
71151;BME280;59071;42.138;24.768;2023-04-07T04:53:09;99562.03;;;7.81;41.03
71151;BME280;59071;42.138;24.768;2023-04-07T04:55:34;99556.59;;;7.89;40.56
71151;BME280;59071;42.138;24.768;2023-04-07T04:58:00;99558.53;;;7.59;40.91
71151;BME280;59071;42.138;24.768;2023-04-07T05:00:25;99563.16;;;7.50;42.07
71151;BME280;59071;42.138;24.768;2023-04-07T05:02:50;99569.88;;;7.74;41.44
71151;BME280;59071;42.138;24.768;2023-04-07T05:05:15;99564.53;;;7.89;40.36
71151;BME280;59071;42.138;24.768;2023-04-07T05:07:41;99574.44;;;8.02;40.32
71151;BME280;59071;42.138;24.768;2023-04-07T05:10:06;99571.91;;;7.94;39.94
71151;BME280;59071;42.138;24.768;2023-04-07T05:12:32;99576.06;;;7.81;40.91
71151;BME280;59071;42.138;24.768;2023-04-07T05:14:57;99580.72;;;8.01;40.00
71151;BME280;59071;42.138;24.768;2023-04-07T05:17:23;99575.44;;;8.01;40.15
71151;BME280;59071;42.138;24.768;2023-04-07T05:19:48;99571.19;;;8.28;39.42
71151;BME280;59071;42.138;24.768;2023-04-07T05:22:13;99573.34;;;8.18;39.80
71151;BME280;59071;42.138;24.768;2023-04-07T05:24:38;99582.75;;;8.49;39.01
71151;BME280;59071;42.138;24.768;2023-04-07T05:27:04;99587.63;;;8.45;38.61
71151;BME280;59071;42.138;24.768;2023-04-07T05:29:30;99591.91;;;8.74;38.34
71151;BME280;59071;42.138;24.768;2023-04-07T05:31:55;99587.34;;;8.61;37.82
71151;BME280;59071;42.138;24.768;2023-04-07T05:34:20;99594.16;;;8.77;39.86
71151;BME280;59071;42.138;24.768;2023-04-07T05:36:46;99591.38;;;8.86;38.63
71151;BME280;59071;42.138;24.768;2023-04-07T05:39:11;99593.97;;;9.14;38.98
71151;BME280;59071;42.138;24.768;2023-04-07T05:41:36;99591.06;;;9.70;36.38
71151;BME280;59071;42.138;24.768;2023-04-07T05:44:02;99590.38;;;9.35;36.66
71151;BME280;59071;42.138;24.768;2023-04-07T05:46:27;99591.59;;;9.39;35.27
71151;BME280;59071;42.138;24.768;2023-04-07T05:48:53;99585.94;;;9.69;36.25
71151;BME280;59071;42.138;24.768;2023-04-07T05:51:18;99590.91;;;9.92;35.03
71151;BME280;59071;42.138;24.768;2023-04-07T05:53:43;99594.00;;;10.15;34.93
71151;BME280;59071;42.138;24.768;2023-04-07T05:56:09;99585.91;;;9.49;34.80
71151;BME280;59071;42.138;24.768;2023-04-07T05:58:34;99589.66;;;10.01;33.85
71151;BME280;59071;42.138;24.768;2023-04-07T06:00:59;99598.91;;;10.18;33.87
71151;BME280;59071;42.138;24.768;2023-04-07T06:03:25;99598.94;;;10.32;34.15
71151;BME280;59071;42.138;24.768;2023-04-07T06:05:50;99592.97;;;10.43;34.55
71151;BME280;59071;42.138;24.768;2023-04-07T06:08:16;99600.75;;;10.65;33.53
71151;BME280;59071;42.138;24.768;2023-04-07T06:10:41;99596.22;;;10.79;33.68
71151;BME280;59071;42.138;24.768;2023-04-07T06:13:08;99602.41;;;10.46;33.53
71151;BME280;59071;42.138;24.768;2023-04-07T06:15:33;99603.22;;;10.40;34.03
71151;BME280;59071;42.138;24.768;2023-04-07T06:17:58;99597.03;;;10.12;34.15
71151;BME280;59071;42.138;24.768;2023-04-07T06:20:24;99600.72;;;10.71;34.38
71151;BME280;59071;42.138;24.768;2023-04-07T06:22:51;99605.63;;;10.14;34.43
71151;BME280;59071;42.138;24.768;2023-04-07T06:25:17;99602.22;;;10.34;34.50
71151;BME280;59071;42.138;24.768;2023-04-07T06:27:42;99603.41;;;10.31;33.36
71151;BME280;59071;42.138;24.768;2023-04-07T06:30:08;99604.63;;;10.22;33.77
71151;BME280;59071;42.138;24.768;2023-04-07T06:32:33;99615.66;;;10.86;33.72
71151;BME280;59071;42.138;24.768;2023-04-07T06:34:58;99619.34;;;10.71;32.81
71151;BME280;59071;42.138;24.768;2023-04-07T06:37:24;99607.94;;;11.29;33.89
71151;BME280;59071;42.138;24.768;2023-04-07T06:39:50;99616.97;;;11.22;32.85
71151;BME280;59071;42.138;24.768;2023-04-07T06:42:15;99618.94;;;11.85;31.46
71151;BME280;59071;42.138;24.768;2023-04-07T06:44:40;99616.34;;;11.71;32.15
71151;BME280;59071;42.138;24.768;2023-04-07T06:47:06;99609.50;;;12.64;30.98
71151;BME280;59071;42.138;24.768;2023-04-07T06:49:31;99621.00;;;12.65;30.66
71151;BME280;59071;42.138;24.768;2023-04-07T06:51:56;99612.75;;;12.23;30.42
71151;BME280;59071;42.138;24.768;2023-04-07T06:54:22;99621.34;;;12.50;30.47
71151;BME280;59071;42.138;24.768;2023-04-07T06:56:47;99625.47;;;12.71;29.71
71151;BME280;59071;42.138;24.768;2023-04-07T06:59:12;99622.47;;;12.61;29.87
71151;BME280;59071;42.138;24.768;2023-04-07T07:01:38;99627.16;;;12.65;29.67
71151;BME280;59071;42.138;24.768;2023-04-07T07:04:03;99631.59;;;11.96;30.61
71151;BME280;59071;42.138;24.768;2023-04-07T07:06:30;99627.66;;;12.56;29.09
71151;BME280;59071;42.138;24.768;2023-04-07T07:08:56;99620.28;;;13.13;28.86
71151;BME280;59071;42.138;24.768;2023-04-07T07:11:21;99621.56;;;13.10;29.06
71151;BME280;59071;42.138;24.768;2023-04-07T07:13:46;99633.06;;;13.48;28.97
71151;BME280;59071;42.138;24.768;2023-04-07T07:16:12;99631.97;;;13.86;28.52
71151;BME280;59071;42.138;24.768;2023-04-07T07:18:37;99622.13;;;14.22;27.54
71151;BME280;59071;42.138;24.768;2023-04-07T07:21:02;99631.97;;;14.75;26.74
71151;BME280;59071;42.138;24.768;2023-04-07T07:23:28;99626.97;;;14.43;26.64
71151;BME280;59071;42.138;24.768;2023-04-07T07:25:53;99629.78;;;14.84;26.39
71151;BME280;59071;42.138;24.768;2023-04-07T07:28:18;99633.38;;;15.01;26.06
71151;BME280;59071;42.138;24.768;2023-04-07T07:30:45;99633.56;;;14.41;27.31
71151;BME280;59071;42.138;24.768;2023-04-07T07:33:11;99638.50;;;14.68;26.77
71151;BME280;59071;42.138;24.768;2023-04-07T07:35:36;99625.69;;;14.58;26.70
71151;BME280;59071;42.138;24.768;2023-04-07T07:38:02;99637.19;;;15.29;26.56
71151;BME280;59071;42.138;24.768;2023-04-07T07:40:27;99631.59;;;15.59;26.05
71151;BME280;59071;42.138;24.768;2023-04-07T07:42:52;99626.16;;;14.90;27.20
71151;BME280;59071;42.138;24.768;2023-04-07T07:45:18;99627.56;;;15.45;27.38
71151;BME280;59071;42.138;24.768;2023-04-07T07:47:44;99636.09;;;15.71;26.99
71151;BME280;59071;42.138;24.768;2023-04-07T07:50:09;99628.25;;;16.27;25.27
71151;BME280;59071;42.138;24.768;2023-04-07T07:52:34;99633.59;;;16.10;26.16
71151;BME280;59071;42.138;24.768;2023-04-07T07:55:00;99618.31;;;16.44;25.32
71151;BME280;59071;42.138;24.768;2023-04-07T07:57:25;99629.63;;;16.29;24.78
71151;BME280;59071;42.138;24.768;2023-04-07T07:59:50;99619.78;;;16.35;25.41
71151;BME280;59071;42.138;24.768;2023-04-07T08:02:16;99623.50;;;16.68;24.96
71151;BME280;59071;42.138;24.768;2023-04-07T08:04:41;99621.06;;;16.66;25.35
71151;BME280;59071;42.138;24.768;2023-04-07T08:07:06;99624.72;;;16.60;25.53
71151;BME280;59071;42.138;24.768;2023-04-07T08:09:32;99614.63;;;16.84;24.75
71151;BME280;59071;42.138;24.768;2023-04-07T08:11:57;99618.47;;;16.54;24.80
71151;BME280;59071;42.138;24.768;2023-04-07T08:14:23;99618.28;;;16.78;25.29
71151;BME280;59071;42.138;24.768;2023-04-07T08:16:48;99615.94;;;16.14;24.38
71151;BME280;59071;42.138;24.768;2023-04-07T08:19:13;99621.53;;;15.78;26.31
71151;BME280;59071;42.138;24.768;2023-04-07T08:21:38;99619.63;;;16.08;25.25
71151;BME280;59071;42.138;24.768;2023-04-07T08:24:04;99614.06;;;16.14;24.96
71151;BME280;59071;42.138;24.768;2023-04-07T08:26:30;99611.84;;;16.79;24.85
71151;BME280;59071;42.138;24.768;2023-04-07T08:28:55;99612.63;;;16.23;24.67
71151;BME280;59071;42.138;24.768;2023-04-07T08:31:20;99612.84;;;16.39;25.54
71151;BME280;59071;42.138;24.768;2023-04-07T08:33:46;99605.88;;;16.94;24.68
71151;BME280;59071;42.138;24.768;2023-04-07T08:36:11;99599.28;;;16.46;25.66
71151;BME280;59071;42.138;24.768;2023-04-07T08:38:37;99599.84;;;16.31;25.56
71151;BME280;59071;42.138;24.768;2023-04-07T08:41:03;99601.28;;;16.89;24.74
71151;BME280;59071;42.138;24.768;2023-04-07T08:43:31;99599.53;;;17.44;25.23
71151;BME280;59071;42.138;24.768;2023-04-07T08:45:57;99593.88;;;17.02;24.31
71151;BME280;59071;42.138;24.768;2023-04-07T08:48:24;99593.09;;;17.01;24.95
71151;BME280;59071;42.138;24.768;2023-04-07T08:50:51;99583.28;;;17.12;25.31
71151;BME280;59071;42.138;24.768;2023-04-07T08:53:17;99595.09;;;17.33;24.80
71151;BME280;59071;42.138;24.768;2023-04-07T08:55:43;99599.84;;;17.48;24.28
71151;BME280;59071;42.138;24.768;2023-04-07T08:58:09;99589.28;;;16.97;24.65
71151;BME280;59071;42.138;24.768;2023-04-07T09:00:38;99594.78;;;17.29;25.14
71151;BME280;59071;42.138;24.768;2023-04-07T09:03:05;99592.31;;;17.50;24.85
71151;BME280;59071;42.138;24.768;2023-04-07T09:05:31;99586.97;;;16.67;25.53
71151;BME280;59071;42.138;24.768;2023-04-07T09:07:56;99581.84;;;15.69;26.17
71151;BME280;59071;42.138;24.768;2023-04-07T09:10:22;99579.50;;;15.72;25.67
71151;BME280;59071;42.138;24.768;2023-04-07T09:12:47;99581.81;;;16.65;24.82
71151;BME280;59071;42.138;24.768;2023-04-07T09:15:13;99585.06;;;16.67;25.59
71151;BME280;59071;42.138;24.768;2023-04-07T09:17:38;99580.84;;;17.10;25.05
71151;BME280;59071;42.138;24.768;2023-04-07T09:20:03;99591.41;;;16.78;25.79
71151;BME280;59071;42.138;24.768;2023-04-07T09:27:38;99589.63;;;17.06;24.30
71151;BME280;59071;42.138;24.768;2023-04-07T09:30:10;99580.91;;;16.37;24.71
71151;BME280;59071;42.138;24.768;2023-04-07T09:32:36;99576.78;;;15.38;27.01
71151;BME280;59071;42.138;24.768;2023-04-07T09:35:02;99582.19;;;15.84;26.54
71151;BME280;59071;42.138;24.768;2023-04-07T09:37:28;99568.94;;;16.11;26.29
71151;BME280;59071;42.138;24.768;2023-04-07T09:39:53;99569.91;;;16.78;26.12
71151;BME280;59071;42.138;24.768;2023-04-07T09:42:21;99565.97;;;16.47;26.27
71151;BME280;59071;42.138;24.768;2023-04-07T09:44:47;99563.09;;;16.70;25.48
71151;BME280;59071;42.138;24.768;2023-04-07T09:47:12;99564.31;;;17.02;25.46
71151;BME280;59071;42.138;24.768;2023-04-07T09:49:51;99565.63;;;16.60;26.18
71151;BME280;59071;42.138;24.768;2023-04-07T09:52:17;99561.81;;;16.56;25.40
71151;BME280;59071;42.138;24.768;2023-04-07T09:54:44;99561.47;;;16.69;25.31
71151;BME280;59071;42.138;24.768;2023-04-07T09:57:11;99563.00;;;16.26;25.52
71151;BME280;59071;42.138;24.768;2023-04-07T09:59:38;99568.94;;;16.84;25.24
71151;BME280;59071;42.138;24.768;2023-04-07T10:02:05;99566.66;;;16.93;24.51
71151;BME280;59071;42.138;24.768;2023-04-07T10:04:30;99570.41;;;17.14;24.84
71151;BME280;59071;42.138;24.768;2023-04-07T10:06:56;99571.34;;;17.03;25.01
71151;BME280;59071;42.138;24.768;2023-04-07T10:09:22;99569.00;;;17.11;24.67
71151;BME280;59071;42.138;24.768;2023-04-07T10:11:49;99563.72;;;16.05;25.11
71151;BME280;59071;42.138;24.768;2023-04-07T10:14:14;99573.25;;;16.29;25.99
71151;BME280;59071;42.138;24.768;2023-04-07T10:16:41;99564.38;;;16.29;25.16
71151;BME280;59071;42.138;24.768;2023-04-07T10:19:06;99563.66;;;16.72;25.07
71151;BME280;59071;42.138;24.768;2023-04-07T10:21:35;99564.16;;;17.08;25.02
71151;BME280;59071;42.138;24.768;2023-04-07T10:24:14;99564.84;;;16.09;25.41
71151;BME280;59071;42.138;24.768;2023-04-07T10:26:46;99560.00;;;16.06;26.54
71151;BME280;59071;42.138;24.768;2023-04-07T10:29:13;99568.06;;;16.61;26.40
71151;BME280;59071;42.138;24.768;2023-04-07T10:31:39;99564.16;;;16.13;25.36
71151;BME280;59071;42.138;24.768;2023-04-07T10:34:05;99559.97;;;15.89;26.83
71151;BME280;59071;42.138;24.768;2023-04-07T10:36:30;99554.44;;;15.95;28.01
71151;BME280;59071;42.138;24.768;2023-04-07T10:41:36;99567.03;;;15.20;27.54
71151;BME280;59071;42.138;24.768;2023-04-07T10:44:05;99569.41;;;15.62;26.75
71151;BME280;59071;42.138;24.768;2023-04-07T10:47:05;99559.78;;;15.33;27.80
71151;BME280;59071;42.138;24.768;2023-04-07T10:49:24;99550.19;;;15.37;27.31
71151;BME280;59071;42.138;24.768;2023-04-07T10:54:34;99553.28;;;15.17;27.33
71151;BME280;59071;42.138;24.768;2023-04-07T10:59:37;99553.53;;;14.63;28.80
71151;BME280;59071;42.138;24.768;2023-04-07T11:04:38;99560.13;;;14.25;29.20
71151;BME280;59071;42.138;24.768;2023-04-07T11:07:04;99557.22;;;14.62;29.09
71151;BME280;59071;42.138;24.768;2023-04-07T11:09:29;99548.16;;;14.63;28.22
71151;BME280;59071;42.138;24.768;2023-04-07T11:11:54;99550.47;;;14.71;29.09
71151;BME280;59071;42.138;24.768;2023-04-07T11:14:26;99548.13;;;14.75;29.45
71151;BME280;59071;42.138;24.768;2023-04-07T11:16:52;99550.03;;;14.62;28.79
71151;BME280;59071;42.138;24.768;2023-04-07T11:19:17;99547.44;;;14.91;28.60
71151;BME280;59071;42.138;24.768;2023-04-07T11:21:43;99549.75;;;14.88;29.30
71151;BME280;59071;42.138;24.768;2023-04-07T11:24:08;99552.53;;;14.81;29.25
71151;BME280;59071;42.138;24.768;2023-04-07T11:26:40;99553.22;;;15.00;28.59
71151;BME280;59071;42.138;24.768;2023-04-07T11:29:05;99539.72;;;14.95;28.10
71151;BME280;59071;42.138;24.768;2023-04-07T11:31:31;99546.69;;;15.65;28.34
71151;BME280;59071;42.138;24.768;2023-04-07T11:33:58;99537.72;;;15.59;28.34
71151;BME280;59071;42.138;24.768;2023-04-07T11:36:31;99543.03;;;15.71;28.29
71151;BME280;59071;42.138;24.768;2023-04-07T11:38:57;99551.72;;;15.61;27.40
71151;BME280;59071;42.138;24.768;2023-04-07T11:41:22;99549.41;;;15.24;27.85
71151;BME280;59071;42.138;24.768;2023-04-07T11:44:02;99540.03;;;15.10;28.18
71151;BME280;59071;42.138;24.768;2023-04-07T11:46:27;99543.06;;;15.02;28.60
71151;BME280;59071;42.138;24.768;2023-04-07T11:48:52;99545.34;;;15.22;29.38
71151;BME280;59071;42.138;24.768;2023-04-07T11:51:19;99539.53;;;15.25;28.67
71151;BME280;59071;42.138;24.768;2023-04-07T11:53:44;99537.41;;;15.56;28.47
71151;BME280;59071;42.138;24.768;2023-04-07T11:56:12;99543.56;;;14.99;29.50
71151;BME280;59071;42.138;24.768;2023-04-07T12:01:12;99538.03;;;15.17;29.50
71151;BME280;59071;42.138;24.768;2023-04-07T12:03:52;99534.97;;;15.25;29.30
71151;BME280;59071;42.138;24.768;2023-04-07T12:06:25;99536.34;;;15.28;28.87
71151;BME280;59071;42.138;24.768;2023-04-07T12:08:53;99521.69;;;15.19;30.12
71151;BME280;59071;42.138;24.768;2023-04-07T12:11:18;99529.66;;;15.02;28.69
71151;BME280;59071;42.138;24.768;2023-04-07T12:13:43;99525.31;;;15.41;29.35
71151;BME280;59071;42.138;24.768;2023-04-07T12:16:09;99528.16;;;15.06;29.17
71151;BME280;59071;42.138;24.768;2023-04-07T12:18:34;99538.63;;;15.08;29.26
71151;BME280;59071;42.138;24.768;2023-04-07T12:21:00;99535.47;;;14.70;29.72
71151;BME280;59071;42.138;24.768;2023-04-07T12:23:25;99543.00;;;14.73;30.03
71151;BME280;59071;42.138;24.768;2023-04-07T12:25:51;99531.22;;;15.27;29.44
71151;BME280;59071;42.138;24.768;2023-04-07T12:28:16;99535.03;;;15.02;30.18
71151;BME280;59071;42.138;24.768;2023-04-07T12:30:41;99523.22;;;14.39;30.56
71151;BME280;59071;42.138;24.768;2023-04-07T12:33:07;99521.38;;;14.63;30.36
71151;BME280;59071;42.138;24.768;2023-04-07T12:35:32;99518.94;;;15.02;30.34
71151;BME280;59071;42.138;24.768;2023-04-07T12:37:58;99522.81;;;14.94;30.58
71151;BME280;59071;42.138;24.768;2023-04-07T12:40:23;99521.50;;;15.09;31.21
71151;BME280;59071;42.138;24.768;2023-04-07T12:42:49;99521.66;;;15.59;30.37
71151;BME280;59071;42.138;24.768;2023-04-07T12:45:14;99522.97;;;15.45;30.93
71151;BME280;59071;42.138;24.768;2023-04-07T12:47:40;99506.66;;;15.92;30.53
71151;BME280;59071;42.138;24.768;2023-04-07T12:50:06;99512.81;;;16.10;29.61
71151;BME280;59071;42.138;24.768;2023-04-07T12:52:32;99516.44;;;15.24;31.47
71151;BME280;59071;42.138;24.768;2023-04-07T12:54:57;99515.75;;;15.45;31.60
71151;BME280;59071;42.138;24.768;2023-04-07T12:57:22;99515.63;;;15.69;31.17
71151;BME280;59071;42.138;24.768;2023-04-07T12:59:48;99506.44;;;15.65;31.13
71151;BME280;59071;42.138;24.768;2023-04-07T13:02:13;99510.38;;;15.91;30.51
71151;BME280;59071;42.138;24.768;2023-04-07T13:04:39;99512.09;;;15.35;32.43
71151;BME280;59071;42.138;24.768;2023-04-07T13:07:07;99507.63;;;15.40;31.97
71151;BME280;59071;42.138;24.768;2023-04-07T13:09:33;99492.59;;;15.11;31.57
71151;BME280;59071;42.138;24.768;2023-04-07T13:11:59;99490.50;;;15.58;31.36